createdAt,value
2019-05-30T00:01:00.060Z,11.66
2019-05-30T00:03:37.897Z,11.65
2019-05-30T00:06:12.490Z,11.62
2019-05-30T00:08:47.239Z,11.59
2019-05-30T00:11:20.610Z,11.58
2019-05-30T00:14:18.140Z,11.58
2019-05-30T00:17:33.908Z,11.57
2019-05-30T00:20:29.513Z,11.58
2019-05-30T00:26:58.201Z,11.59
2019-05-30T00:30:22.875Z,11.54
2019-05-30T00:32:58.741Z,11.60
2019-05-30T00:35:45.747Z,11.56
2019-05-30T00:38:47.890Z,11.58
2019-05-30T00:41:57.863Z,11.54
2019-05-30T00:47:52.465Z,11.69
2019-05-30T00:50:29.841Z,11.71
2019-05-30T00:53:47.931Z,11.74
2019-05-30T00:56:28.548Z,11.76
2019-05-30T00:59:58.755Z,11.81
2019-05-30T01:03:20.864Z,11.83
2019-05-30T01:06:44.248Z,11.87
2019-05-30T01:10:07.488Z,11.89
2019-05-30T01:13:22.017Z,11.79
2019-05-30T01:16:55.281Z,11.88
2019-05-30T01:20:05.290Z,11.74
2019-05-30T01:23:19.018Z,11.66
2019-05-30T01:26:16.443Z,11.60
2019-05-30T01:28:49.213Z,11.58
2019-05-30T01:31:22.762Z,11.59
2019-05-30T01:33:59.945Z,11.51
2019-05-30T01:36:37.726Z,11.60
2019-05-30T01:39:10.366Z,11.49
2019-05-30T01:41:42.360Z,11.51
2019-05-30T01:44:13.723Z,11.67
2019-05-30T01:46:44.955Z,11.63
2019-05-30T01:49:16.709Z,11.62
2019-05-30T01:51:48.317Z,11.58
2019-05-30T01:54:23.569Z,11.67
2019-05-30T01:56:58.530Z,11.64
2019-05-30T01:59:29.360Z,11.70
2019-05-30T02:02:02.908Z,11.70
2019-05-30T02:04:35.664Z,11.69
2019-05-30T02:07:07.551Z,11.77
2019-05-30T02:09:43.606Z,11.88
2019-05-30T02:12:15.285Z,11.86
2019-05-30T02:14:48.763Z,11.82
2019-05-30T02:17:20.622Z,12.10
2019-05-30T02:19:52.314Z,11.88
2019-05-30T02:22:24.654Z,11.92
2019-05-30T02:24:57.180Z,11.77
2019-05-30T02:27:29.379Z,11.85
2019-05-30T02:30:03.969Z,11.94
2019-05-30T02:32:37.258Z,11.99
2019-05-30T02:35:12.580Z,11.63
2019-05-30T02:37:43.887Z,11.50
2019-05-30T02:40:18.031Z,11.51
2019-05-30T02:42:51.636Z,11.54
2019-05-30T02:45:25.093Z,11.51
2019-05-30T02:47:56.996Z,11.52
2019-05-30T02:50:29.031Z,11.59
2019-05-30T02:53:03.523Z,11.74
2019-05-30T02:55:36.899Z,11.66
2019-05-30T02:58:10.441Z,11.68
2019-05-30T03:00:42.489Z,11.70
2019-05-30T03:03:15.008Z,11.65
2019-05-30T03:05:47.079Z,11.76
2019-05-30T03:08:19.440Z,11.66
2019-05-30T03:10:51.698Z,11.51
2019-05-30T03:13:25.954Z,11.51
2019-05-30T03:16:02.068Z,11.46
2019-05-30T03:18:35.758Z,11.50
2019-05-30T03:21:12.396Z,11.53
2019-05-30T03:23:43.369Z,11.64
2019-05-30T03:26:16.199Z,11.60
2019-05-30T03:28:48.122Z,11.57
2019-05-30T03:31:28.687Z,11.55
2019-05-30T03:34:08.805Z,11.60
2019-05-30T03:36:39.210Z,11.60
2019-05-30T03:39:13.093Z,11.59
2019-05-30T03:41:46.488Z,11.68
2019-05-30T03:44:19.455Z,11.68
2019-05-30T03:46:55.354Z,11.78
2019-05-30T03:49:31.547Z,11.69
2019-05-30T03:52:10.665Z,11.69
2019-05-30T03:54:43.008Z,11.76
2019-05-30T03:57:33.034Z,11.68
2019-05-30T04:00:24.478Z,11.70
2019-05-30T04:03:09.395Z,11.74
2019-05-30T04:05:53.493Z,11.68
2019-05-30T04:08:27.891Z,11.78
2019-05-30T04:11:03.733Z,11.72
2019-05-30T04:13:42.478Z,11.82
2019-05-30T04:16:36.233Z,11.84
2019-05-30T04:19:12.351Z,11.87
2019-05-30T04:21:46.045Z,12.02
2019-05-30T04:24:19.598Z,12.02
2019-05-30T04:26:51.895Z,12.16
2019-05-30T04:29:24.019Z,12.20
2019-05-30T04:31:58.247Z,12.10
2019-05-30T04:34:30.340Z,11.94
2019-05-30T04:37:03.599Z,11.82
2019-05-30T04:39:36.773Z,11.79
2019-05-30T04:42:11.364Z,11.82
2019-05-30T04:44:43.933Z,11.83
2019-05-30T04:47:18.288Z,11.84
2019-05-30T04:49:50.366Z,11.98
2019-05-30T04:52:26.056Z,12.10
2019-05-30T04:54:58.914Z,12.14
2019-05-30T04:57:34.202Z,12.33
2019-05-30T05:00:10.807Z,12.36
2019-05-30T05:02:43.396Z,12.49
2019-05-30T05:05:20.926Z,12.58
2019-05-30T05:07:48.649Z,12.78
2019-05-30T05:10:22.341Z,12.82
2019-05-30T05:12:55.483Z,13.01
2019-05-30T05:15:28.567Z,13.16
2019-05-30T05:18:00.361Z,13.28
2019-05-30T05:20:36.068Z,13.45
2019-05-30T05:23:07.000Z,13.74
2019-05-30T05:25:42.253Z,13.77
2019-05-30T05:28:15.657Z,13.79
2019-05-30T05:30:51.516Z,13.79
2019-05-30T05:37:19.474Z,14.03
2019-05-30T05:40:42.504Z,14.18
2019-05-30T05:47:24.651Z,14.24
2019-05-30T05:50:45.710Z,14.29
2019-05-30T05:53:48.688Z,15.00
2019-05-30T05:56:35.680Z,15.46
2019-05-30T06:02:34.209Z,16.29
2019-05-30T06:05:08.662Z,16.17
2019-05-30T06:07:40.333Z,15.85
2019-05-30T06:10:15.216Z,15.61
2019-05-30T06:12:47.192Z,15.62
2019-05-30T06:15:21.173Z,15.31
2019-05-30T06:17:53.619Z,15.42
2019-05-30T06:20:27.362Z,15.59
2019-05-30T06:23:01.069Z,15.12
2019-05-30T06:25:34.298Z,15.32
2019-05-30T06:28:09.563Z,15.36
2019-05-30T06:31:01.578Z,15.36
2019-05-30T06:33:34.707Z,15.28
2019-05-30T06:36:06.728Z,15.19
2019-05-30T06:38:39.622Z,15.55
2019-05-30T06:41:12.115Z,15.46
2019-05-30T06:43:44.267Z,15.60
2019-05-30T06:47:11.556Z,15.91
2019-05-30T06:49:47.474Z,16.00
2019-05-30T06:52:20.885Z,16.05
2019-05-30T06:54:53.231Z,15.76
2019-05-30T06:57:25.235Z,15.92
2019-05-30T06:59:58.686Z,16.40
2019-05-30T07:02:30.557Z,16.75
2019-05-30T07:05:08.270Z,16.83
2019-05-30T07:07:52.081Z,16.68
2019-05-30T07:10:25.066Z,16.68
2019-05-30T07:13:01.881Z,16.91
2019-05-30T07:15:35.155Z,16.88
2019-05-30T07:18:11.205Z,17.04
2019-05-30T07:20:42.991Z,16.80
2019-05-30T07:23:15.170Z,17.19
2019-05-30T07:25:46.831Z,17.23
2019-05-30T07:28:18.588Z,17.22
2019-05-30T07:30:53.082Z,17.31
2019-05-30T07:33:28.038Z,17.22
2019-05-30T07:36:04.294Z,17.37
2019-05-30T07:38:35.539Z,17.86
2019-05-30T07:41:12.014Z,18.12
2019-05-30T07:43:43.361Z,17.57
2019-05-30T07:46:19.349Z,17.78
2019-05-30T07:48:52.931Z,17.62
2019-05-30T07:51:26.369Z,18.26
2019-05-30T07:53:57.772Z,18.61
2019-05-30T07:56:35.395Z,18.66
2019-05-30T07:59:06.712Z,19.13
2019-05-30T08:01:39.641Z,19.36
2019-05-30T08:04:11.088Z,19.56
2019-05-30T08:06:42.259Z,19.49
2019-05-30T08:09:19.028Z,19.98
2019-05-30T08:11:50.512Z,19.83
2019-05-30T08:14:22.401Z,19.96
2019-05-30T08:16:53.864Z,19.95
2019-05-30T08:19:27.978Z,19.80
2019-05-30T08:22:18.969Z,19.46
2019-05-30T08:25:12.548Z,19.39
2019-05-30T08:28:05.524Z,18.57
2019-05-30T08:33:55.948Z,19.47
2019-05-30T08:36:51.605Z,19.66
2019-05-30T08:39:59.933Z,19.55
2019-05-30T08:43:00.603Z,19.42
2019-05-30T08:46:05.871Z,18.91
2019-05-30T08:49:11.720Z,18.29
2019-05-30T08:52:16.427Z,18.28
2019-05-30T08:55:09.736Z,18.10
2019-05-30T08:57:42.266Z,17.73
2019-05-30T09:00:16.426Z,17.83
2019-05-30T09:02:47.729Z,17.55
2019-05-30T09:05:21.496Z,17.59
2019-05-30T09:08:35.915Z,17.34
2019-05-30T09:11:38.840Z,17.26
2019-05-30T09:14:42.873Z,17.35
2019-05-30T09:17:46.706Z,17.52
2019-05-30T09:20:49.323Z,17.17
2019-05-30T09:23:31.292Z,17.73
2019-05-30T09:26:12.830Z,17.66
2019-05-30T09:29:03.669Z,17.77
2019-05-30T09:31:52.714Z,18.00
2019-05-30T09:34:44.813Z,18.12
2019-05-30T09:37:47.941Z,18.19
2019-05-30T09:40:43.609Z,17.75
2019-05-30T09:43:44.686Z,17.67
2019-05-30T09:46:46.869Z,17.28
2019-05-30T09:50:03.806Z,16.63
2019-05-30T09:53:02.434Z,16.30
2019-05-30T09:56:04.383Z,16.30
2019-05-30T09:59:09.854Z,16.23
2019-05-30T10:02:03.746Z,16.42
2019-05-30T10:04:50.409Z,16.58
2019-05-30T10:07:36.130Z,16.67
2019-05-30T10:10:16.484Z,16.90
2019-05-30T10:12:52.784Z,17.08
2019-05-30T10:15:24.879Z,17.26
2019-05-30T10:17:56.959Z,17.36
2019-05-30T10:20:32.800Z,17.37
2019-05-30T10:23:06.848Z,17.46
2019-05-30T10:25:38.075Z,17.40
2019-05-30T10:28:15.098Z,17.65
2019-05-30T10:30:52.342Z,17.87
2019-05-30T10:33:24.609Z,18.02
2019-05-30T10:35:57.034Z,17.86
2019-05-30T10:38:34.351Z,17.52
2019-05-30T10:41:05.623Z,17.77
2019-05-30T10:43:42.656Z,17.44
2019-05-30T10:46:13.960Z,17.08
2019-05-30T10:48:47.268Z,17.00
2019-05-30T10:51:18.112Z,17.07
2019-05-30T10:53:53.909Z,17.11
2019-05-30T10:56:26.328Z,16.96
2019-05-30T10:59:03.149Z,17.55
2019-05-30T11:01:36.593Z,17.74
2019-05-30T11:04:08.029Z,17.94
2019-05-30T11:07:06.854Z,18.32
2019-05-30T11:09:28.670Z,18.31
2019-05-30T11:12:02.654Z,18.16
2019-05-30T11:14:33.894Z,18.09
2019-05-30T11:17:05.329Z,18.38
2019-05-30T11:19:38.866Z,18.09
2019-05-30T11:22:17.029Z,17.97
2019-05-30T11:24:48.282Z,17.97
2019-05-30T11:27:19.603Z,18.18
2019-05-30T11:30:02.873Z,18.20
2019-05-30T11:32:59.364Z,18.65
2019-05-30T11:36:14.170Z,18.86
2019-05-30T11:38:53.720Z,18.38
2019-05-30T11:42:01.768Z,18.47
2019-05-30T11:45:01.635Z,18.58
2019-05-30T11:48:01.677Z,18.82
2019-05-30T11:51:00.028Z,19.28
2019-05-30T11:53:53.983Z,19.40
2019-05-30T11:56:50.100Z,19.60
2019-05-30T11:59:52.144Z,19.65
2019-05-30T12:02:42.767Z,19.44
2019-05-30T12:05:38.519Z,19.60
2019-05-30T12:08:27.258Z,19.66
2019-05-30T12:11:32.606Z,19.50
2019-05-30T12:14:13.729Z,18.83
2019-05-30T12:17:10.332Z,18.20
2019-05-30T12:20:00.375Z,17.46
2019-05-30T12:23:00.182Z,17.55
2019-05-30T12:25:48.605Z,17.51
2019-05-30T12:28:52.052Z,17.83
2019-05-30T12:31:52.325Z,17.94
2019-05-30T12:34:58.305Z,17.83
2019-05-30T12:37:56.044Z,18.15
2019-05-30T12:41:10.877Z,18.13
2019-05-30T12:44:33.486Z,18.36
2019-05-30T12:47:48.932Z,18.70
2019-05-30T12:53:58.379Z,19.35
2019-05-30T13:03:04.905Z,19.14
2019-05-30T13:05:57.058Z,18.27
2019-05-30T13:08:46.609Z,17.73
2019-05-30T13:11:41.368Z,17.62
2019-05-30T13:14:41.241Z,17.51
2019-05-30T13:17:50.653Z,17.52
2019-05-30T13:20:52.687Z,17.72
2019-05-30T13:23:28.742Z,17.70
2019-05-30T13:26:00.065Z,17.92
2019-05-30T13:28:31.836Z,18.10
2019-05-30T13:31:04.474Z,18.13
2019-05-30T13:33:38.762Z,18.28
2019-05-30T13:36:12.048Z,18.25
2019-05-30T13:38:46.148Z,18.19
2019-05-30T13:41:21.296Z,18.25
2019-05-30T13:43:55.337Z,18.56
2019-05-30T13:46:30.189Z,18.74
2019-05-30T13:49:02.649Z,18.99
2019-05-30T13:51:35.860Z,18.82
2019-05-30T13:54:09.263Z,18.81
2019-05-30T13:56:41.549Z,18.80
2019-05-30T13:59:14.082Z,18.56
2019-05-30T14:01:45.461Z,18.71
2019-05-30T14:04:20.100Z,18.71
2019-05-30T14:06:53.485Z,18.44
2019-05-30T14:09:25.603Z,18.44
2019-05-30T14:11:57.609Z,18.21
2019-05-30T14:14:30.184Z,17.96
2019-05-30T14:17:01.367Z,18.02
2019-05-30T14:19:32.588Z,17.95
2019-05-30T14:22:07.254Z,17.90
2019-05-30T14:24:41.224Z,17.87
2019-05-30T14:27:13.989Z,17.85
2019-05-30T14:29:46.614Z,17.85
2019-05-30T14:32:19.950Z,17.73
2019-05-30T14:34:58.017Z,17.84
2019-05-30T14:37:30.156Z,17.82
2019-05-30T14:40:11.020Z,17.77
2019-05-30T14:42:43.560Z,17.77
2019-05-30T14:45:19.514Z,17.80
2019-05-30T14:47:50.931Z,17.82
2019-05-30T14:50:23.679Z,17.72
2019-05-30T14:52:57.963Z,17.56
2019-05-30T14:55:29.208Z,17.69
2019-05-30T14:58:02.704Z,17.86
2019-05-30T15:00:33.920Z,17.77
2019-05-30T15:03:09.152Z,17.90
2019-05-30T15:05:42.703Z,17.94
2019-05-30T15:08:18.091Z,17.86
2019-05-30T15:10:49.304Z,17.75
2019-05-30T15:13:22.075Z,17.44
2019-05-30T15:15:57.303Z,17.30
2019-05-30T15:18:31.481Z,17.32
2019-05-30T15:21:06.959Z,17.37
2019-05-30T15:23:38.150Z,17.49
2019-05-30T15:26:14.211Z,17.60
2019-05-30T15:28:46.555Z,17.63
2019-05-30T15:31:19.190Z,17.47
2019-05-30T15:33:53.009Z,17.35
2019-05-30T15:36:29.193Z,17.23
2019-05-30T15:38:59.593Z,17.26
2019-05-30T15:41:36.080Z,17.36
2019-05-30T15:44:07.535Z,17.48
2019-05-30T15:46:41.962Z,17.34
2019-05-30T15:49:16.470Z,17.36
2019-05-30T15:51:49.668Z,17.46
2019-05-30T15:54:22.305Z,17.41
2019-05-30T15:56:56.084Z,17.45
2019-05-30T15:59:32.106Z,17.42
2019-05-30T16:02:04.093Z,17.43
2019-05-30T16:04:36.291Z,17.42
2019-05-30T16:07:08.040Z,17.45
2019-05-30T16:09:46.998Z,17.51
2019-05-30T16:12:15.075Z,17.44
2019-05-30T16:14:49.033Z,17.53
2019-05-30T16:17:25.677Z,17.50
2019-05-30T16:20:02.319Z,17.38
2019-05-30T16:22:36.946Z,17.21
2019-05-30T16:25:15.550Z,17.00
2019-05-30T16:27:51.623Z,16.84
2019-05-30T16:30:26.992Z,16.79
2019-05-30T16:33:00.715Z,16.66
2019-05-30T16:35:34.921Z,16.61
2019-05-30T16:38:10.203Z,16.55
2019-05-30T16:40:45.176Z,16.58
2019-05-30T16:43:20.305Z,16.55
2019-05-30T16:45:54.447Z,16.38
2019-05-30T16:48:26.748Z,16.32
2019-05-30T16:51:12.935Z,16.29
2019-05-30T16:53:56.512Z,16.39
2019-05-30T16:56:42.121Z,16.36
2019-05-30T16:59:45.879Z,16.33
2019-05-30T17:02:29.798Z,16.47
2019-05-30T17:08:46.000Z,16.41
2019-05-30T17:11:36.009Z,16.42
2019-05-30T17:14:49.174Z,16.49
2019-05-30T17:17:49.950Z,16.31
2019-05-30T17:20:59.329Z,16.23
2019-05-30T17:23:41.186Z,16.08
2019-05-30T17:26:27.471Z,16.09
2019-05-30T17:29:19.509Z,16.10
2019-05-30T17:32:23.860Z,16.09
2019-05-30T17:35:30.765Z,15.93
2019-05-30T17:38:36.398Z,15.89
2019-05-30T17:44:34.419Z,15.82
2019-05-30T17:47:29.512Z,15.78
2019-05-30T17:50:29.992Z,15.71
2019-05-30T17:53:35.880Z,15.69
2019-05-30T17:56:26.130Z,15.63
2019-05-30T17:59:08.584Z,15.59
2019-05-30T18:02:31.175Z,15.58
2019-05-30T18:05:22.612Z,15.55
2019-05-30T18:08:36.012Z,15.46
2019-05-30T18:11:11.872Z,15.45
2019-05-30T18:13:47.488Z,15.17
2019-05-30T18:16:20.984Z,15.05
2019-05-30T18:18:55.280Z,15.11
2019-05-30T18:21:27.485Z,15.14
2019-05-30T18:24:03.811Z,15.17
2019-05-30T18:26:35.341Z,15.10
2019-05-30T18:29:06.598Z,15.07
2019-05-30T18:31:38.403Z,15.07
2019-05-30T18:34:09.662Z,15.06
2019-05-30T18:36:41.437Z,15.09
2019-05-30T18:39:17.116Z,14.89
2019-05-30T18:41:48.485Z,14.79
2019-05-30T18:44:20.971Z,14.92
2019-05-30T18:46:57.562Z,14.78
2019-05-30T18:49:29.383Z,14.65
2019-05-30T18:52:00.704Z,14.67
2019-05-30T18:54:32.936Z,14.38
2019-05-30T18:57:05.347Z,14.25
2019-05-30T18:59:37.494Z,14.28
2019-05-30T19:02:13.152Z,14.25
2019-05-30T19:04:44.662Z,14.10
2019-05-30T19:07:19.277Z,14.00
2019-05-30T19:09:52.927Z,13.97
2019-05-30T19:12:30.102Z,14.04
2019-05-30T19:18:15.212Z,13.93
2019-05-30T19:20:47.993Z,13.95
2019-05-30T19:23:22.254Z,14.05
2019-05-30T19:25:57.082Z,14.07
2019-05-30T19:28:30.383Z,14.02
2019-05-30T19:31:06.335Z,13.93
2019-05-30T19:33:38.703Z,13.84
2019-05-30T19:36:12.180Z,13.91
2019-05-30T19:38:45.085Z,13.83
2019-05-30T19:41:17.946Z,13.73
2019-05-30T19:43:50.363Z,13.87
2019-05-30T19:46:21.684Z,13.90
2019-05-30T19:48:55.149Z,13.85
2019-05-30T19:51:26.715Z,13.80
2019-05-30T19:53:57.941Z,13.76
2019-05-30T19:56:29.315Z,13.73
2019-05-30T19:59:01.338Z,13.70
2019-05-30T20:01:33.770Z,13.68
2019-05-30T20:04:05.770Z,13.71
2019-05-30T20:06:37.210Z,13.69
2019-05-30T20:09:11.025Z,13.72
2019-05-30T20:11:42.782Z,13.69
2019-05-30T20:14:14.206Z,13.67
2019-05-30T20:16:45.727Z,13.66
2019-05-30T20:19:17.161Z,13.68
2019-05-30T20:21:48.676Z,13.64
2019-05-30T20:24:20.253Z,13.71
2019-05-30T20:26:52.871Z,13.62
2019-05-30T20:29:24.394Z,13.76
2019-05-30T20:31:55.904Z,13.78
2019-05-30T20:34:28.729Z,13.81
2019-05-30T20:37:00.138Z,13.81
2019-05-30T20:39:32.513Z,13.82
2019-05-30T20:42:18.238Z,13.80
2019-05-30T20:44:38.859Z,13.72
2019-05-30T20:47:11.737Z,13.61
2019-05-30T20:49:43.395Z,13.64
2019-05-30T20:52:16.223Z,13.57
2019-05-30T20:54:47.675Z,13.59
2019-05-30T20:57:19.049Z,13.61
2019-05-30T20:59:50.628Z,13.60
2019-05-30T21:02:22.205Z,13.53
2019-05-30T21:04:53.525Z,13.58
2019-05-30T21:07:25.900Z,13.60
2019-05-30T21:09:58.594Z,13.62
2019-05-30T21:12:37.693Z,13.60
2019-05-30T21:15:09.010Z,13.58
2019-05-30T21:17:42.320Z,13.58
2019-05-30T21:20:15.380Z,13.45
2019-05-30T21:22:48.392Z,13.39
2019-05-30T21:25:20.486Z,13.36
2019-05-30T21:27:52.237Z,13.25
2019-05-30T21:30:23.560Z,13.21
2019-05-30T21:32:55.220Z,13.18
2019-05-30T21:35:26.808Z,13.13
2019-05-30T21:37:58.552Z,13.12
2019-05-30T21:40:30.001Z,13.16
2019-05-30T21:43:06.751Z,13.17
2019-05-30T21:45:35.589Z,13.04
2019-05-30T21:48:07.052Z,13.08
2019-05-30T21:50:39.277Z,13.07
2019-05-30T21:53:11.610Z,13.15
2019-05-30T21:55:43.949Z,13.18
2019-05-30T21:58:15.476Z,13.10
2019-05-30T22:00:51.314Z,13.11
2019-05-30T22:03:24.825Z,13.05
2019-05-30T22:05:57.573Z,13.07
2019-05-30T22:08:29.073Z,13.02
2019-05-30T22:11:00.510Z,12.94
2019-05-30T22:13:32.996Z,12.68
2019-05-30T22:16:04.310Z,12.61
2019-05-30T22:18:35.803Z,12.54
2019-05-30T22:21:07.865Z,12.44
2019-05-30T22:23:39.335Z,12.41
2019-05-30T22:26:11.935Z,12.39
2019-05-30T22:28:44.361Z,12.28
2019-05-30T22:31:15.930Z,12.26
2019-05-30T22:33:47.285Z,12.22
2019-05-30T22:36:20.214Z,12.24
2019-05-30T22:38:56.906Z,12.17
2019-05-30T22:41:28.526Z,12.14
2019-05-30T22:44:00.315Z,12.17
2019-05-30T22:46:32.088Z,12.11
2019-05-30T22:49:19.145Z,12.09
2019-05-30T22:51:51.131Z,12.09
2019-05-30T22:54:23.616Z,11.99
2019-05-30T22:57:14.120Z,11.96
2019-05-30T22:59:49.065Z,11.95
2019-05-30T23:02:20.362Z,11.93
2019-05-30T23:04:52.236Z,11.91
2019-05-30T23:07:24.070Z,11.96
2019-05-30T23:09:56.859Z,11.84
2019-05-30T23:12:30.046Z,11.83
2019-05-30T23:15:02.543Z,11.77
2019-05-30T23:17:35.534Z,11.75
2019-05-30T23:20:09.827Z,11.82
2019-05-30T23:22:41.857Z,11.95
2019-05-30T23:25:14.584Z,12.05
2019-05-30T23:27:47.358Z,12.17
2019-05-30T23:30:19.814Z,12.12
2019-05-30T23:32:52.120Z,12.16
2019-05-30T23:35:23.983Z,12.23
2019-05-30T23:37:57.211Z,12.34
2019-05-30T23:40:28.813Z,12.26
2019-05-30T23:43:00.362Z,12.33
2019-05-30T23:45:33.475Z,12.28
2019-05-30T23:48:06.398Z,12.17
2019-05-30T23:50:39.320Z,12.06
2019-05-30T23:53:12.130Z,12.08
2019-05-30T23:55:43.401Z,12.04
2019-05-30T23:58:15.011Z,11.86
